Terminal Aerodrome Forecast
Issued by NWS Pocatello, ID

Home | Current Version | Previous Version | Text Only | Print | Product List | Glossary On
Versions: 1 2 3 4 5 6 7 8 9 10 11 12
000
FTUS45 KPIH 040520
TAFIDA
TAF
KIDA 040520Z 0406/0506 VRB05KT P6SM SKC
     FM041700 22010KT P6SM FEW080 BKN180
     FM050300 18007KT P6SM BKN140=

USA.gov is the U.S. government's official web portal to all federal, state and local government web resources and services.